sensor_id;sensor_type;location;lat;lon;timestamp;pressure;altitude;pressure_sealevel;temperature;humidity
60854;BME280;48554;50.766;2.900;2023-01-25T00:01:40;103092.47;;;17.79;39.88
60854;BME280;48554;50.766;2.900;2023-01-25T00:04:00;103087.59;;;17.68;40.72
60854;BME280;48554;50.766;2.900;2023-01-25T00:06:20;103090.28;;;17.68;40.63
60854;BME280;48554;50.766;2.900;2023-01-25T00:08:40;103090.31;;;17.89;40.07
60854;BME280;48554;50.766;2.900;2023-01-25T00:11:01;103085.25;;;18.23;39.44
60854;BME280;48554;50.766;2.900;2023-01-25T00:13:21;103087.06;;;18.44;39.04
60854;BME280;48554;50.766;2.900;2023-01-25T00:15:41;103083.25;;;18.31;39.32
60854;BME280;48554;50.766;2.900;2023-01-25T00:18:02;103083.47;;;18.08;39.76
60854;BME280;48554;50.766;2.900;2023-01-25T00:20:22;103076.09;;;17.89;40.15
60854;BME280;48554;50.766;2.900;2023-01-25T00:22:42;103070.19;;;17.79;40.42
60854;BME280;48554;50.766;2.900;2023-01-25T00:25:03;103074.84;;;17.70;40.50
60854;BME280;48554;50.766;2.900;2023-01-25T00:27:23;103075.69;;;17.92;39.96
60854;BME280;48554;50.766;2.900;2023-01-25T00:29:43;103066.81;;;18.13;39.69
60854;BME280;48554;50.766;2.900;2023-01-25T00:32:27;103063.44;;;18.32;39.21
60854;BME280;48554;50.766;2.900;2023-01-25T00:34:48;103063.59;;;18.24;39.45
60854;BME280;48554;50.766;2.900;2023-01-25T00:39:51;103047.94;;;18.00;39.74
60854;BME280;48554;50.766;2.900;2023-01-25T00:42:13;103052.97;;;17.88;39.91
60854;BME280;48554;50.766;2.900;2023-01-25T00:44:34;103048.59;;;17.80;40.20
60854;BME280;48554;50.766;2.900;2023-01-25T00:46:54;103048.94;;;17.99;39.73
60854;BME280;48554;50.766;2.900;2023-01-25T00:49:25;103046.16;;;18.13;39.54
60854;BME280;48554;50.766;2.900;2023-01-25T00:51:45;103053.34;;;18.34;39.12
60854;BME280;48554;50.766;2.900;2023-01-25T00:54:05;103043.38;;;18.28;39.18
60854;BME280;48554;50.766;2.900;2023-01-25T00:56:26;103048.25;;;18.18;39.41
60854;BME280;48554;50.766;2.900;2023-01-25T00:58:46;103049.06;;;18.12;39.58
60854;BME280;48554;50.766;2.900;2023-01-25T01:01:06;103047.78;;;18.08;39.64
60854;BME280;48554;50.766;2.900;2023-01-25T01:03:27;103053.91;;;18.02;39.79
60854;BME280;48554;50.766;2.900;2023-01-25T01:05:47;103050.94;;;18.18;39.32
60854;BME280;48554;50.766;2.900;2023-01-25T01:08:08;103050.41;;;18.29;39.11
60854;BME280;48554;50.766;2.900;2023-01-25T01:10:28;103052.22;;;18.22;39.54
60854;BME280;48554;50.766;2.900;2023-01-25T01:12:49;103050.66;;;18.06;39.58
60854;BME280;48554;50.766;2.900;2023-01-25T01:15:10;103046.00;;;17.93;39.84
60854;BME280;48554;50.766;2.900;2023-01-25T01:17:30;103051.56;;;17.92;39.92
60854;BME280;48554;50.766;2.900;2023-01-25T01:19:50;103063.56;;;17.96;39.79
60854;BME280;48554;50.766;2.900;2023-01-25T01:22:10;103059.81;;;18.18;39.13
60854;BME280;48554;50.766;2.900;2023-01-25T01:24:31;103068.63;;;18.40;39.06
60854;BME280;48554;50.766;2.900;2023-01-25T01:26:51;103066.25;;;18.52;38.83
60854;BME280;48554;50.766;2.900;2023-01-25T01:29:12;103058.25;;;18.31;39.11
60854;BME280;48554;50.766;2.900;2023-01-25T01:31:32;103052.75;;;18.11;39.26
60854;BME280;48554;50.766;2.900;2023-01-25T01:33:54;103060.13;;;18.02;39.67
60854;BME280;48554;50.766;2.900;2023-01-25T01:36:16;103055.09;;;17.92;39.85
60854;BME280;48554;50.766;2.900;2023-01-25T01:38:37;103049.72;;;17.92;39.73
60854;BME280;48554;50.766;2.900;2023-01-25T01:40:57;103057.34;;;18.17;39.42
60854;BME280;48554;50.766;2.900;2023-01-25T01:43:22;103055.22;;;18.40;39.04
60854;BME280;48554;50.766;2.900;2023-01-25T01:45:48;103051.56;;;18.48;38.79
60854;BME280;48554;50.766;2.900;2023-01-25T01:50:44;103054.91;;;18.22;39.22
60854;BME280;48554;50.766;2.900;2023-01-25T01:53:04;103062.47;;;18.12;39.25
60854;BME280;48554;50.766;2.900;2023-01-25T01:55:24;103058.44;;;18.01;39.68
60854;BME280;48554;50.766;2.900;2023-01-25T01:57:54;103055.13;;;17.99;39.69
60854;BME280;48554;50.766;2.900;2023-01-25T02:00:19;103060.28;;;18.22;39.38
60854;BME280;48554;50.766;2.900;2023-01-25T02:02:41;103062.06;;;18.43;38.74
60854;BME280;48554;50.766;2.900;2023-01-25T02:05:04;103056.69;;;18.43;38.75
60854;BME280;48554;50.766;2.900;2023-01-25T02:07:31;103047.97;;;18.34;38.85
60854;BME280;48554;50.766;2.900;2023-01-25T02:09:52;103062.78;;;18.30;38.98
60854;BME280;48554;50.766;2.900;2023-01-25T02:12:12;103052.47;;;18.27;39.04
60854;BME280;48554;50.766;2.900;2023-01-25T02:14:33;103054.44;;;18.18;39.22
60854;BME280;48554;50.766;2.900;2023-01-25T02:16:54;103057.72;;;18.14;39.39
60854;BME280;48554;50.766;2.900;2023-01-25T02:21:58;103054.69;;;18.52;38.57
60854;BME280;48554;50.766;2.900;2023-01-25T02:24:25;103059.94;;;18.38;38.83
60854;BME280;48554;50.766;2.900;2023-01-25T02:26:48;103056.56;;;18.23;39.08
60854;BME280;48554;50.766;2.900;2023-01-25T02:29:09;103048.44;;;18.16;39.35
60854;BME280;48554;50.766;2.900;2023-01-25T02:31:29;103060.84;;;18.17;39.13
60854;BME280;48554;50.766;2.900;2023-01-25T02:33:50;103054.25;;;18.20;39.16
60854;BME280;48554;50.766;2.900;2023-01-25T02:38:35;103042.66;;;18.48;38.83
60854;BME280;48554;50.766;2.900;2023-01-25T02:41:04;103034.91;;;18.59;38.51
60854;BME280;48554;50.766;2.900;2023-01-25T02:43:30;103036.66;;;18.46;38.74
60854;BME280;48554;50.766;2.900;2023-01-25T02:45:58;103035.78;;;18.32;39.01
60854;BME280;48554;50.766;2.900;2023-01-25T02:48:19;103033.38;;;18.15;39.38
60854;BME280;48554;50.766;2.900;2023-01-25T02:50:40;103026.72;;;18.05;39.43
60854;BME280;48554;50.766;2.900;2023-01-25T02:53:00;103028.13;;;18.01;39.37
60854;BME280;48554;50.766;2.900;2023-01-25T02:55:20;103036.13;;;18.22;39.17
60854;BME280;48554;50.766;2.900;2023-01-25T02:57:40;103025.75;;;18.47;38.50
60854;BME280;48554;50.766;2.900;2023-01-25T03:00:01;103029.16;;;18.69;38.39
60854;BME280;48554;50.766;2.900;2023-01-25T03:02:21;103020.50;;;18.74;38.32
60854;BME280;48554;50.766;2.900;2023-01-25T03:04:42;103026.19;;;18.51;38.74
60854;BME280;48554;50.766;2.900;2023-01-25T03:07:02;103022.31;;;18.25;38.79
60854;BME280;48554;50.766;2.900;2023-01-25T03:09:22;103028.44;;;18.19;39.26
60854;BME280;48554;50.766;2.900;2023-01-25T03:11:42;103022.22;;;18.12;39.36
60854;BME280;48554;50.766;2.900;2023-01-25T03:14:03;103020.50;;;18.04;39.50
60854;BME280;48554;50.766;2.900;2023-01-25T03:16:23;103022.25;;;18.18;39.13
60854;BME280;48554;50.766;2.900;2023-01-25T03:18:43;103015.59;;;18.43;38.76
60854;BME280;48554;50.766;2.900;2023-01-25T03:21:12;103012.63;;;18.66;38.34
60854;BME280;48554;50.766;2.900;2023-01-25T03:23:33;103014.47;;;18.65;38.38
60854;BME280;48554;50.766;2.900;2023-01-25T03:25:53;103008.25;;;18.58;38.36
60854;BME280;48554;50.766;2.900;2023-01-25T03:28:13;103012.50;;;18.39;38.84
60854;BME280;48554;50.766;2.900;2023-01-25T03:30:33;103009.06;;;18.24;39.10
60854;BME280;48554;50.766;2.900;2023-01-25T03:32:54;103003.69;;;18.17;39.28
60854;BME280;48554;50.766;2.900;2023-01-25T03:35:14;103007.13;;;18.11;39.31
60854;BME280;48554;50.766;2.900;2023-01-25T03:37:34;102996.94;;;18.28;38.95
60854;BME280;48554;50.766;2.900;2023-01-25T03:39:55;102996.19;;;18.40;38.75
60854;BME280;48554;50.766;2.900;2023-01-25T03:42:15;102998.94;;;18.54;38.35
60854;BME280;48554;50.766;2.900;2023-01-25T03:44:35;102995.63;;;18.52;38.54
60854;BME280;48554;50.766;2.900;2023-01-25T03:46:56;102995.19;;;18.48;38.50
60854;BME280;48554;50.766;2.900;2023-01-25T03:49:16;102988.56;;;18.44;38.64
60854;BME280;48554;50.766;2.900;2023-01-25T03:51:36;102982.28;;;18.30;38.91
60854;BME280;48554;50.766;2.900;2023-01-25T03:53:57;102981.81;;;18.20;39.23
60854;BME280;48554;50.766;2.900;2023-01-25T03:56:17;102981.41;;;18.23;38.92
60854;BME280;48554;50.766;2.900;2023-01-25T03:58:38;102972.84;;;18.34;38.65
60854;BME280;48554;50.766;2.900;2023-01-25T04:00:59;102975.16;;;18.44;38.51
60854;BME280;48554;50.766;2.900;2023-01-25T04:03:20;102980.72;;;18.43;38.60
60854;BME280;48554;50.766;2.900;2023-01-25T04:05:41;102981.28;;;18.31;38.81
60854;BME280;48554;50.766;2.900;2023-01-25T04:08:01;102982.09;;;18.32;38.87
60854;BME280;48554;50.766;2.900;2023-01-25T04:10:21;102982.94;;;18.32;38.66
60854;BME280;48554;50.766;2.900;2023-01-25T04:12:41;102983.97;;;18.31;38.79
60854;BME280;48554;50.766;2.900;2023-01-25T04:15:02;102982.28;;;18.30;38.80
60854;BME280;48554;50.766;2.900;2023-01-25T04:17:22;102981.50;;;18.36;38.80
60854;BME280;48554;50.766;2.900;2023-01-25T04:19:43;102974.13;;;18.45;38.75
60854;BME280;48554;50.766;2.900;2023-01-25T04:22:03;102968.38;;;18.55;38.37
60854;BME280;48554;50.766;2.900;2023-01-25T04:24:23;102963.97;;;18.40;38.58
60854;BME280;48554;50.766;2.900;2023-01-25T04:26:43;102961.00;;;18.29;38.93
60854;BME280;48554;50.766;2.900;2023-01-25T04:29:04;102973.13;;;18.18;39.22
60854;BME280;48554;50.766;2.900;2023-01-25T04:31:24;102966.25;;;18.09;39.38
60854;BME280;48554;50.766;2.900;2023-01-25T04:33:44;102964.44;;;18.09;39.03
60854;BME280;48554;50.766;2.900;2023-01-25T04:36:05;102974.00;;;18.25;38.79
60854;BME280;48554;50.766;2.900;2023-01-25T04:38:25;102967.97;;;18.51;38.54
60854;BME280;48554;50.766;2.900;2023-01-25T04:40:46;102973.59;;;18.70;38.15
60854;BME280;48554;50.766;2.900;2023-01-25T04:43:06;102969.03;;;18.64;38.26
60854;BME280;48554;50.766;2.900;2023-01-25T04:45:27;102964.41;;;18.44;38.51
60854;BME280;48554;50.766;2.900;2023-01-25T04:47:48;102967.22;;;18.29;38.87
60854;BME280;48554;50.766;2.900;2023-01-25T04:50:09;102970.47;;;18.18;39.09
60854;BME280;48554;50.766;2.900;2023-01-25T04:52:30;102968.94;;;18.09;39.13
60854;BME280;48554;50.766;2.900;2023-01-25T04:54:50;102970.38;;;18.05;39.26
60854;BME280;48554;50.766;2.900;2023-01-25T04:57:10;102959.97;;;18.23;38.77
60854;BME280;48554;50.766;2.900;2023-01-25T04:59:30;102955.78;;;18.49;38.31
60854;BME280;48554;50.766;2.900;2023-01-25T05:01:51;102952.94;;;18.70;38.06
60854;BME280;48554;50.766;2.900;2023-01-25T05:04:11;102951.47;;;18.61;38.06
60854;BME280;48554;50.766;2.900;2023-01-25T05:06:31;102959.91;;;18.51;38.32
60854;BME280;48554;50.766;2.900;2023-01-25T05:08:51;102949.69;;;18.33;38.66
60854;BME280;48554;50.766;2.900;2023-01-25T05:11:12;102946.94;;;18.20;38.82
60854;BME280;48554;50.766;2.900;2023-01-25T05:13:32;102957.84;;;18.12;39.30
60854;BME280;48554;50.766;2.900;2023-01-25T05:15:55;102955.31;;;18.04;38.99
60854;BME280;48554;50.766;2.900;2023-01-25T05:18:15;102955.63;;;18.22;38.78
60854;BME280;48554;50.766;2.900;2023-01-25T05:20:36;102954.22;;;18.33;38.50
60854;BME280;48554;50.766;2.900;2023-01-25T05:22:56;102954.97;;;18.55;38.17
60854;BME280;48554;50.766;2.900;2023-01-25T05:25:16;102957.22;;;18.58;38.17
60854;BME280;48554;50.766;2.900;2023-01-25T05:27:36;102958.03;;;18.52;38.31
60854;BME280;48554;50.766;2.900;2023-01-25T05:29:56;102960.91;;;18.44;38.46
60854;BME280;48554;50.766;2.900;2023-01-25T05:32:19;102957.97;;;18.32;38.51
60854;BME280;48554;50.766;2.900;2023-01-25T05:34:40;102958.31;;;18.22;38.77
60854;BME280;48554;50.766;2.900;2023-01-25T05:37:01;102954.75;;;18.15;38.80
60854;BME280;48554;50.766;2.900;2023-01-25T05:39:21;102949.69;;;18.27;38.81
60854;BME280;48554;50.766;2.900;2023-01-25T05:41:42;102944.53;;;18.38;38.36
60854;BME280;48554;50.766;2.900;2023-01-25T05:44:02;102948.09;;;18.46;38.11
60854;BME280;48554;50.766;2.900;2023-01-25T05:46:23;102946.41;;;18.31;38.63
60854;BME280;48554;50.766;2.900;2023-01-25T05:48:46;102949.63;;;18.20;38.77
60854;BME280;48554;50.766;2.900;2023-01-25T05:51:07;102956.25;;;18.24;38.69
60854;BME280;48554;50.766;2.900;2023-01-25T05:53:27;102954.41;;;18.25;38.31
60854;BME280;48554;50.766;2.900;2023-01-25T05:55:48;102950.91;;;18.24;38.49
60854;BME280;48554;50.766;2.900;2023-01-25T05:58:08;102949.53;;;18.42;38.25
60854;BME280;48554;50.766;2.900;2023-01-25T06:00:28;102949.97;;;18.45;38.25
60854;BME280;48554;50.766;2.900;2023-01-25T06:02:48;102948.34;;;18.51;38.17
60854;BME280;48554;50.766;2.900;2023-01-25T06:05:09;102947.63;;;18.35;38.49
60854;BME280;48554;50.766;2.900;2023-01-25T06:07:32;102945.72;;;18.23;38.69
60854;BME280;48554;50.766;2.900;2023-01-25T06:09:53;102947.72;;;18.14;38.85
60854;BME280;48554;50.766;2.900;2023-01-25T06:12:13;102950.75;;;18.04;38.90
60854;BME280;48554;50.766;2.900;2023-01-25T06:14:33;102954.06;;;18.00;39.02
60854;BME280;48554;50.766;2.900;2023-01-25T06:16:54;102952.50;;;18.18;38.21
60854;BME280;48554;50.766;2.900;2023-01-25T06:19:14;102955.78;;;18.49;38.02
60854;BME280;48554;50.766;2.900;2023-01-25T06:21:35;102958.31;;;18.64;38.08
60854;BME280;48554;50.766;2.900;2023-01-25T06:23:55;102956.44;;;18.64;38.05
60854;BME280;48554;50.766;2.900;2023-01-25T06:26:15;102955.91;;;18.40;38.32
60854;BME280;48554;50.766;2.900;2023-01-25T06:28:36;102954.59;;;18.23;38.53
60854;BME280;48554;50.766;2.900;2023-01-25T06:31:08;102958.66;;;18.12;38.91
60854;BME280;48554;50.766;2.900;2023-01-25T06:33:29;102948.28;;;18.03;39.30
60854;BME280;48554;50.766;2.900;2023-01-25T06:35:49;102946.84;;;18.00;39.40
60854;BME280;48554;50.766;2.900;2023-01-25T06:38:10;102943.84;;;18.23;38.94
60854;BME280;48554;50.766;2.900;2023-01-25T06:40:30;102949.78;;;18.47;38.82
60854;BME280;48554;50.766;2.900;2023-01-25T06:42:50;102948.56;;;18.63;38.46
60854;BME280;48554;50.766;2.900;2023-01-25T06:45:10;102941.97;;;18.58;38.17
60854;BME280;48554;50.766;2.900;2023-01-25T06:47:31;102943.81;;;18.51;38.70
60854;BME280;48554;50.766;2.900;2023-01-25T06:49:51;102948.88;;;18.33;39.10
60854;BME280;48554;50.766;2.900;2023-01-25T06:52:11;102942.59;;;18.19;39.80
60854;BME280;48554;50.766;2.900;2023-01-25T06:54:32;102940.72;;;18.13;40.08
60854;BME280;48554;50.766;2.900;2023-01-25T06:56:52;102938.91;;;18.20;40.09
60854;BME280;48554;50.766;2.900;2023-01-25T06:59:13;102943.28;;;18.28;40.95
60854;BME280;48554;50.766;2.900;2023-01-25T07:01:33;102934.22;;;18.35;42.78
60854;BME280;48554;50.766;2.900;2023-01-25T07:03:56;102946.84;;;18.42;41.20
60854;BME280;48554;50.766;2.900;2023-01-25T07:06:17;102937.91;;;18.28;41.14
60854;BME280;48554;50.766;2.900;2023-01-25T07:08:37;102934.31;;;18.14;40.82
60854;BME280;48554;50.766;2.900;2023-01-25T07:11:03;102931.38;;;18.02;41.06
60854;BME280;48554;50.766;2.900;2023-01-25T07:13:24;102935.88;;;17.95;41.45
60854;BME280;48554;50.766;2.900;2023-01-25T07:15:51;102934.78;;;17.89;41.40
60854;BME280;48554;50.766;2.900;2023-01-25T07:18:12;102943.63;;;17.83;41.71
60854;BME280;48554;50.766;2.900;2023-01-25T07:20:32;102935.31;;;17.78;41.64
60854;BME280;48554;50.766;2.900;2023-01-25T07:22:52;102939.22;;;17.75;41.96
60854;BME280;48554;50.766;2.900;2023-01-25T07:25:13;102945.16;;;17.71;41.84
60854;BME280;48554;50.766;2.900;2023-01-25T07:27:33;102936.47;;;17.69;41.77
60854;BME280;48554;50.766;2.900;2023-01-25T07:29:53;102929.81;;;17.65;41.54
60854;BME280;48554;50.766;2.900;2023-01-25T07:32:14;102934.75;;;17.61;41.71
60854;BME280;48554;50.766;2.900;2023-01-25T07:34:34;102929.59;;;17.60;41.78
60854;BME280;48554;50.766;2.900;2023-01-25T07:36:54;102921.47;;;17.53;41.93
60854;BME280;48554;50.766;2.900;2023-01-25T07:39:14;102915.28;;;17.52;41.86
60854;BME280;48554;50.766;2.900;2023-01-25T07:41:34;102924.38;;;17.51;41.60
60854;BME280;48554;50.766;2.900;2023-01-25T07:43:55;102919.59;;;17.47;41.93
60854;BME280;48554;50.766;2.900;2023-01-25T07:46:15;102927.63;;;17.47;41.90
60854;BME280;48554;50.766;2.900;2023-01-25T07:48:36;102926.16;;;17.44;41.93
60854;BME280;48554;50.766;2.900;2023-01-25T07:51:00;102922.19;;;17.40;41.82
60854;BME280;48554;50.766;2.900;2023-01-25T07:53:21;102918.88;;;17.38;41.83
60854;BME280;48554;50.766;2.900;2023-01-25T07:55:41;102912.06;;;17.36;41.88
60854;BME280;48554;50.766;2.900;2023-01-25T07:58:01;102923.00;;;17.34;41.97
60854;BME280;48554;50.766;2.900;2023-01-25T08:00:21;102917.81;;;17.32;41.93
60854;BME280;48554;50.766;2.900;2023-01-25T08:02:42;102919.03;;;17.30;41.84
60854;BME280;48554;50.766;2.900;2023-01-25T08:05:02;102911.00;;;17.30;41.82
60854;BME280;48554;50.766;2.900;2023-01-25T08:07:22;102909.06;;;17.24;41.84
60854;BME280;48554;50.766;2.900;2023-01-25T08:09:43;102919.59;;;17.25;41.77
60854;BME280;48554;50.766;2.900;2023-01-25T08:12:03;102911.41;;;17.33;41.68
60854;BME280;48554;50.766;2.900;2023-01-25T08:14:24;102907.00;;;17.47;41.44
60854;BME280;48554;50.766;2.900;2023-01-25T08:16:44;102911.94;;;17.44;41.42
60854;BME280;48554;50.766;2.900;2023-01-25T08:19:04;102905.25;;;17.33;41.30
60854;BME280;48554;50.766;2.900;2023-01-25T08:21:26;102908.97;;;17.32;41.31
60854;BME280;48554;50.766;2.900;2023-01-25T08:23:46;102911.38;;;17.27;41.59
60854;BME280;48554;50.766;2.900;2023-01-25T08:26:09;102906.78;;;17.21;41.74
60854;BME280;48554;50.766;2.900;2023-01-25T08:28:30;102902.31;;;17.28;41.48
60854;BME280;48554;50.766;2.900;2023-01-25T08:30:51;102899.50;;;17.36;41.28
60854;BME280;48554;50.766;2.900;2023-01-25T08:33:11;102906.13;;;17.40;41.08
60854;BME280;48554;50.766;2.900;2023-01-25T08:35:31;102906.91;;;17.34;41.16
60854;BME280;48554;50.766;2.900;2023-01-25T08:37:51;102907.66;;;17.28;41.36
60854;BME280;48554;50.766;2.900;2023-01-25T08:40:12;102910.09;;;17.23;41.45
60854;BME280;48554;50.766;2.900;2023-01-25T08:42:32;102904.31;;;17.19;41.54
60854;BME280;48554;50.766;2.900;2023-01-25T08:44:52;102910.25;;;17.15;41.51
60854;BME280;48554;50.766;2.900;2023-01-25T08:47:13;102911.38;;;17.27;41.51
60854;BME280;48554;50.766;2.900;2023-01-25T08:49:33;102908.56;;;17.35;41.12
60854;BME280;48554;50.766;2.900;2023-01-25T08:51:53;102911.00;;;17.30;41.25
60854;BME280;48554;50.766;2.900;2023-01-25T08:54:13;102904.75;;;17.23;41.25
60854;BME280;48554;50.766;2.900;2023-01-25T08:56:36;102905.31;;;17.18;41.33
60854;BME280;48554;50.766;2.900;2023-01-25T08:58:57;102898.25;;;17.10;41.39
60854;BME280;48554;50.766;2.900;2023-01-25T09:01:18;102909.78;;;17.11;41.38
60854;BME280;48554;50.766;2.900;2023-01-25T09:03:43;102904.00;;;17.07;41.48
60854;BME280;48554;50.766;2.900;2023-01-25T09:06:03;102902.88;;;17.02;41.54
60854;BME280;48554;50.766;2.900;2023-01-25T09:08:24;102915.28;;;17.03;41.45
60854;BME280;48554;50.766;2.900;2023-01-25T09:10:44;102911.69;;;16.96;41.73
60854;BME280;48554;50.766;2.900;2023-01-25T09:13:04;102902.88;;;17.02;41.14
60854;BME280;48554;50.766;2.900;2023-01-25T09:15:25;102911.19;;;17.07;40.98
60854;BME280;48554;50.766;2.900;2023-01-25T09:17:45;102921.25;;;17.26;40.82
60854;BME280;48554;50.766;2.900;2023-01-25T09:20:06;102915.31;;;17.31;41.06
60854;BME280;48554;50.766;2.900;2023-01-25T09:22:27;102897.34;;;17.25;40.91
60854;BME280;48554;50.766;2.900;2023-01-25T09:24:47;102908.47;;;17.22;40.92
60854;BME280;48554;50.766;2.900;2023-01-25T09:27:07;102902.56;;;17.11;41.03
60854;BME280;48554;50.766;2.900;2023-01-25T09:29:28;102911.19;;;17.07;41.27
60854;BME280;48554;50.766;2.900;2023-01-25T09:31:48;102905.38;;;17.03;41.37
60854;BME280;48554;50.766;2.900;2023-01-25T09:34:10;102898.75;;;16.99;41.30
60854;BME280;48554;50.766;2.900;2023-01-25T09:36:30;102893.13;;;16.94;41.55
60854;BME280;48554;50.766;2.900;2023-01-25T09:38:50;102898.69;;;16.93;41.35
60854;BME280;48554;50.766;2.900;2023-01-25T09:41:33;102890.03;;;16.90;41.50
60854;BME280;48554;50.766;2.900;2023-01-25T09:46:55;102894.56;;;16.90;41.42
60854;BME280;48554;50.766;2.900;2023-01-25T09:54:44;102887.03;;;17.22;40.50
60854;BME280;48554;50.766;2.900;2023-01-25T09:57:15;102894.03;;;17.23;40.40
60854;BME280;48554;50.766;2.900;2023-01-25T09:59:37;102902.56;;;17.11;40.75
60854;BME280;48554;50.766;2.900;2023-01-25T10:02:25;102892.38;;;17.00;41.04
60854;BME280;48554;50.766;2.900;2023-01-25T10:04:52;102887.13;;;16.92;41.41
60854;BME280;48554;50.766;2.900;2023-01-25T10:07:42;102883.00;;;16.89;41.37
60854;BME280;48554;50.766;2.900;2023-01-25T10:10:10;102886.22;;;16.85;41.25
60854;BME280;48554;50.766;2.900;2023-01-25T10:12:36;102875.72;;;16.83;41.22
60854;BME280;48554;50.766;2.900;2023-01-25T10:14:57;102876.31;;;16.79;41.43
60854;BME280;48554;50.766;2.900;2023-01-25T10:22:49;102864.50;;;16.95;41.09
60854;BME280;48554;50.766;2.900;2023-01-25T10:28:04;102851.19;;;16.80;40.70
60854;BME280;48554;50.766;2.900;2023-01-25T10:30:39;102847.28;;;16.82;40.84
60854;BME280;48554;50.766;2.900;2023-01-25T10:33:12;102856.69;;;16.93;40.45
60854;BME280;48554;50.766;2.900;2023-01-25T10:35:36;102848.44;;;16.95;40.55
60854;BME280;48554;50.766;2.900;2023-01-25T10:38:02;102847.56;;;16.87;40.83
60854;BME280;48554;50.766;2.900;2023-01-25T10:40:25;102844.81;;;16.81;41.29
60854;BME280;48554;50.766;2.900;2023-01-25T10:45:14;102851.75;;;16.97;40.53
60854;BME280;48554;50.766;2.900;2023-01-25T10:47:35;102843.94;;;16.95;40.77
60854;BME280;48554;50.766;2.900;2023-01-25T10:49:57;102839.31;;;16.89;41.05
60854;BME280;48554;50.766;2.900;2023-01-25T10:52:24;102836.16;;;16.79;41.17
60854;BME280;48554;50.766;2.900;2023-01-25T10:54:46;102823.13;;;16.76;41.13
60854;BME280;48554;50.766;2.900;2023-01-25T10:57:10;102815.84;;;16.69;41.25
60854;BME280;48554;50.766;2.900;2023-01-25T10:59:34;102813.38;;;16.68;41.42
60854;BME280;48554;50.766;2.900;2023-01-25T11:01:55;102808.34;;;16.58;40.79
60854;BME280;48554;50.766;2.900;2023-01-25T11:06:47;102796.94;;;16.93;40.38
60854;BME280;48554;50.766;2.900;2023-01-25T11:11:40;102781.78;;;17.00;40.49
60854;BME280;48554;50.766;2.900;2023-01-25T11:14:00;102777.97;;;16.87;40.76
60854;BME280;48554;50.766;2.900;2023-01-25T11:16:33;102765.88;;;16.77;40.88
60854;BME280;48554;50.766;2.900;2023-01-25T11:18:55;102764.59;;;16.73;41.02
60854;BME280;48554;50.766;2.900;2023-01-25T11:21:17;102764.56;;;16.66;41.08
60854;BME280;48554;50.766;2.900;2023-01-25T11:23:38;102765.78;;;16.63;41.05
60854;BME280;48554;50.766;2.900;2023-01-25T11:26:16;102759.78;;;16.61;40.98
60854;BME280;48554;50.766;2.900;2023-01-25T11:28:36;102751.53;;;16.63;41.28
60854;BME280;48554;50.766;2.900;2023-01-25T11:30:56;102740.72;;;16.71;40.83
60854;BME280;48554;50.766;2.900;2023-01-25T11:33:19;102740.47;;;16.87;40.26
60854;BME280;48554;50.766;2.900;2023-01-25T11:38:22;102722.81;;;16.93;40.21
60854;BME280;48554;50.766;2.900;2023-01-25T11:46:44;102701.97;;;16.67;40.85
60854;BME280;48554;50.766;2.900;2023-01-25T11:51:09;102706.66;;;16.58;41.10
60854;BME280;48554;50.766;2.900;2023-01-25T11:56:06;102689.94;;;16.78;40.25
60854;BME280;48554;50.766;2.900;2023-01-25T12:01:23;102668.00;;;16.67;40.92
60854;BME280;48554;50.766;2.900;2023-01-25T12:11:54;102652.44;;;16.78;40.13
60854;BME280;48554;50.766;2.900;2023-01-25T12:20:27;102629.50;;;16.90;40.00
60854;BME280;48554;50.766;2.900;2023-01-25T12:28:21;102617.94;;;16.61;40.90
60854;BME280;48554;50.766;2.900;2023-01-25T12:30:49;102603.28;;;16.57;40.68
60854;BME280;48554;50.766;2.900;2023-01-25T12:33:14;102606.19;;;16.56;40.93
60854;BME280;48554;50.766;2.900;2023-01-25T12:35:42;102593.56;;;16.50;40.52
60854;BME280;48554;50.766;2.900;2023-01-25T12:38:12;102587.72;;;16.67;40.18
60854;BME280;48554;50.766;2.900;2023-01-25T12:40:44;102586.50;;;16.98;39.56
60854;BME280;48554;50.766;2.900;2023-01-25T12:43:14;102574.63;;;17.21;39.28
60854;BME280;48554;50.766;2.900;2023-01-25T12:45:36;102576.19;;;16.95;39.79
60854;BME280;48554;50.766;2.900;2023-01-25T12:48:17;102572.16;;;16.78;40.26
60854;BME280;48554;50.766;2.900;2023-01-25T12:50:58;102558.28;;;16.67;40.49
60854;BME280;48554;50.766;2.900;2023-01-25T12:53:40;102550.00;;;16.62;40.77
60854;BME280;48554;50.766;2.900;2023-01-25T12:56:01;102555.34;;;16.56;40.74
60854;BME280;48554;50.766;2.900;2023-01-25T13:01:10;102543.78;;;16.55;40.79
60854;BME280;48554;50.766;2.900;2023-01-25T13:06:41;102535.16;;;16.88;39.63
60854;BME280;48554;50.766;2.900;2023-01-25T13:11:41;102516.44;;;16.95;39.60
60854;BME280;48554;50.766;2.900;2023-01-25T13:14:30;102512.31;;;16.92;39.58
60854;BME280;48554;50.766;2.900;2023-01-25T13:17:10;102513.06;;;16.79;40.01
60854;BME280;48554;50.766;2.900;2023-01-25T13:21:51;102510.31;;;16.66;40.39
60854;BME280;48554;50.766;2.900;2023-01-25T13:26:37;102499.63;;;16.66;40.43
60854;BME280;48554;50.766;2.900;2023-01-25T13:28:58;102505.41;;;16.76;40.06
60854;BME280;48554;50.766;2.900;2023-01-25T13:33:56;102499.88;;;16.78;39.90
60854;BME280;48554;50.766;2.900;2023-01-25T13:38:56;102493.19;;;16.60;40.57
60854;BME280;48554;50.766;2.900;2023-01-25T13:41:17;102495.09;;;16.66;40.15
60854;BME280;48554;50.766;2.900;2023-01-25T13:43:39;102485.25;;;16.74;39.84
60854;BME280;48554;50.766;2.900;2023-01-25T13:45:59;102486.13;;;16.81;39.88
60854;BME280;48554;50.766;2.900;2023-01-25T13:48:22;102484.84;;;16.77;39.90
60854;BME280;48554;50.766;2.900;2023-01-25T13:51:07;102485.09;;;16.82;40.02
60854;BME280;48554;50.766;2.900;2023-01-25T13:53:29;102477.28;;;16.87;39.49